Terminal Aerodrome Forecast
Issued by NWS

Home | Current Version | Previous Version | Text Only | Print | Product List | Glossary On
Versions: 1 2 3 4 5 6 7 8 9 10 11 12 13 14 15 16 17 18 19 20 21 22 23 24
185
FTUS43 KBIS 281725
TAFJMS
TAF
KJMS 281725Z 2818/0118 01008KT P6SM SCT020 SCT090
     FM010300 02004KT P6SM OVC020
     FM010600 VRB03KT P6SM OVC015
     FM011000 35004KT P6SM -SN BKN008
     FM011600 32009KT P6SM BKN008=

USA.gov is the U.S. government's official web portal to all federal, state and local government web resources and services.